Time,TemperatureF,DewpointF,PressureIn,WindDirection,WindDirectionDegrees,WindSpeedMPH,WindSpeedGustMPH,Humidity,HourlyPrecipIn,Conditions,Clouds,dailyrainin,SoftwareType,DateUTC
2013-03-18 00:02:00,47.0,8.0,-100.00,WSW,257,3.0,11.0,20,-99.99,,,-99.99,,2013-03-18 07:02:00,
2013-03-18 04:32:00,40.0,11.0,-100.00,SSW,213,0.0,11.0,30,-99.99,,,-99.99,,2013-03-18 11:32:00,
2013-03-18 04:43:00,40.0,11.0,-100.00,SSW,213,0.0,11.0,30,-99.99,,,-99.99,,2013-03-18 11:43:00,
2013-03-18 04:52:00,42.0,14.0,-100.00,WNW,301,1.0,11.0,31,-99.99,,,-99.99,,2013-03-18 11:52:00,
2013-03-18 05:02:00,42.0,14.0,-100.00,WNW,301,1.0,11.0,31,-99.99,,,-99.99,,2013-03-18 12:02:00,
2013-03-18 09:22:00,44.0,19.0,-100.00,East,99,2.0,10.0,36,-99.99,,,-99.99,,2013-03-18 16:22:00,
2013-03-18 09:33:00,42.0,19.0,-100.00,East,97,1.0,4.0,40,-99.99,,,-99.99,,2013-03-18 16:33:00,
2013-03-18 09:42:00,44.0,19.0,-100.00,ENE,75,1.0,7.0,37,-99.99,,,-99.99,,2013-03-18 16:42:00,
2013-03-18 09:52:00,44.0,19.0,-100.00,East,99,2.0,10.0,36,-99.99,,,-99.99,,2013-03-18 16:52:00,
2013-03-18 10:02:00,44.0,19.0,-100.00,East,99,2.0,10.0,36,-99.99,,,-99.99,,2013-03-18 17:02:00,
2013-03-18 10:12:00,44.0,19.0,-100.00,East,99,2.0,10.0,36,-99.99,,,-99.99,,2013-03-18 17:12:00,
2013-03-18 14:33:00,59.0,13.0,-100.00,WNW,292,7.0,15.0,16,-99.99,,,-99.99,,2013-03-18 21:33:00,
2013-03-18 14:43:00,59.0,13.0,-100.00,WNW,295,6.0,17.0,16,-99.99,,,-99.99,,2013-03-18 21:43:00,
2013-03-18 14:53:00,59.0,13.0,-100.00,WNW,295,6.0,17.0,16,-99.99,,,-99.99,,2013-03-18 21:53:00,
2013-03-18 15:03:00,60.0,12.0,-100.00,WNW,285,6.0,14.0,15,-99.99,,,-99.99,,2013-03-18 22:03:00,
2013-03-18 15:13:00,60.0,12.0,-100.00,WNW,285,6.0,14.0,15,-99.99,,,-99.99,,2013-03-18 22:13:00,
2013-03-18 15:22:00,59.0,13.0,-100.00,WNW,301,7.0,19.0,16,-99.99,,,-99.99,,2013-03-18 22:22:00,
2013-03-18 15:33:00,59.0,13.0,-100.00,WNW,301,7.0,19.0,16,-99.99,,,-99.99,,2013-03-18 22:33:00,
2013-03-18 15:42:00,59.0,13.0,-100.00,WNW,301,7.0,19.0,16,-99.99,,,-99.99,,2013-03-18 22:42:00,
2013-03-18 17:12:00,57.0,20.0,-100.00,West,261,4.0,16.0,23,-99.99,,,-99.99,,2013-03-19 00:12:00,
2013-03-18 17:22:00,57.0,21.0,-100.00,West,261,2.0,12.0,24,-99.99,,,-99.99,,2013-03-19 00:22:00,
2013-03-18 17:32:00,57.0,21.0,-100.00,West,261,2.0,12.0,24,-99.99,,,-99.99,,2013-03-19 00:32:00,
2013-03-18 17:42:00,57.0,21.0,-100.00,West,261,2.0,12.0,24,-99.99,,,-99.99,,2013-03-19 00:42:00,
2013-03-18 17:52:00,57.0,21.0,-100.00,West,261,2.0,12.0,24,-99.99,,,-99.99,,2013-03-19 00:52:00,
2013-03-18 19:22:00,52.0,25.0,-100.00,West,275,4.0,12.0,34,-99.99,,,-99.99,,2013-03-19 02:22:00,
2013-03-18 19:32:00,52.0,25.0,-100.00,West,274,5.0,12.0,34,-99.99,,,-99.99,,2013-03-19 02:32:00,
2013-03-18 19:42:00,51.0,24.0,-100.00,WNW,288,4.0,12.0,35,-99.99,,,-99.99,,2013-03-19 02:42:00,
2013-03-18 19:52:00,51.0,24.0,-100.00,WNW,285,4.0,12.0,35,-99.99,,,-99.99,,2013-03-19 02:52:00,
2013-03-18 20:02:00,51.0,24.0,-100.00,West,278,4.0,11.0,35,-99.99,,,-99.99,,2013-03-19 03:02:00,
2013-03-18 20:11:00,51.0,26.0,-100.00,WNW,288,4.0,12.0,37,-99.99,,,-99.99,,2013-03-19 03:11:00,
2013-03-18 20:13:00,51.0,21.0,-100.00,WNW,294,3.0,12.0,31,-99.99,,,-99.99,,2013-03-19 03:13:00,
2013-03-18 20:22:00,50.0,23.0,-100.00,West,280,4.0,12.0,35,-99.99,,,-99.99,,2013-03-19 03:22:00,
2013-03-18 20:32:00,50.0,22.0,-100.00,West,277,3.0,16.0,33,-99.99,,,-99.99,,2013-03-19 03:32:00,
2013-03-18 20:43:00,51.0,21.0,-100.00,WNW,294,3.0,12.0,31,-99.99,,,-99.99,,2013-03-19 03:43:00,
2013-03-18 20:53:00,51.0,21.0,-100.00,WNW,294,3.0,12.0,31,-99.99,,,-99.99,,2013-03-19 03:53:00,